Truckee, CA

12:35 PM PDT on October 23, 2014 (GMT -0700)
Squaw Valley USA | Change Station
CLOSE
Current Station
Personal Weather Station
Location: Olympic Valley, CA
Elevation: 6529 ft
Nearby Weather Stations

Elev 6529 ft 39.20 °N, 120.23 °W | Updated 6 minutes ago

Mostly Cloudy
Mostly Cloudy
55.6 °F
Feels Like 55.6 °F
N
5.0
Wind Variable Wind from WSW
Gusts 14.0 mph

Today
High -- | Low -- °F
--% Chance of Precip.
Yesterday
High -- | Low -- °F
Precip. -- in
7:18 AM 6:10 PM
Waning Crescent, 0% visible
Pressure 30.17 in
Visibility 10.0 miles
Clouds Scattered Clouds 12000 ft
Mostly Cloudy 20000 ft
Dew Point 32 °F
Humidity 41%
Rainfall 0.00 in
Snow Depth 0 in
UV 3 out of 12
Pollen 2.50 out of 12
Air Quality Not available.
Flu Activity Sporadic
METAR KTRK 231845Z 21015G19KT 10SM SCT120 BKN200 16/M02 A3017 RMK NOSPECI

More Conditions Fewer Conditions

Pressure 30.17 in
Visibility 10.0 miles
Clouds Scattered Clouds 12000 ft
Mostly Cloudy 20000 ft
Dew Point 32 °F
Humidity 41%
Rainfall 0.00 in
Snow Depth 0 in
UV 3 out of 12
Pollen 2.50 out of 12
Air Quality Not available.
Flu Activity Sporadic
METAR KTRK 231845Z 21015G19KT 10SM SCT120 BKN200 16/M02 A3017 RMK NOSPECI

More Conditions Fewer Conditions

10-Day Weather Forecast

Almanac

Astronomy

Oct. 23, 2014 Rise Set
Actual Time 7:18 AM PDT 6:10 PM PDT
Civil Twilight 6:51 AM PDT 6:37 PM PDT
Nautical Twilight 6:20 AM PDT 7:09 PM PDT
Astronomical Twilight 5:49 AM PDT 7:40 PM PDT
Moon 7:03 AM PDT 6:15 PM PDT
Length of Visible Light 11h 46m
Length of Day
10h 51m
Tomorrow will be 2m 23s shorter.
Waning Crescent, 0% of the Moon is Illuminated
Today
Waning Crescent
Oct 23
New
Oct 30
First Quarter
Nov 6
Full
Nov 14
Last Quarter

Today's Extremes

State Highs State Lows

Community

WunderPhotos

Upload Photos

1,764,350 photos uploaded!

WunderBlogs® & News

By Dr. Jeff Masters
Director of Meteorology, Weather Underground
By Kari Strenfel
Meteorologist, Weather Underground
By Christopher C. Burt
Weather Historian, Weather Underground
October 23, 2014
October 23, 2014
October 23, 2014

Nearby

Snow Depth

Station Depth Elevation
Tahoe City Cross 0 in 6750 ft
Rubicon #2 0 in 7500 ft
Heavenly Valley 0 in 8850 ft
Monitor Pass 1 in 8350 ft
Summit Meadow 1 in 9122 ft

Earthquake Activity

City Distance Mag. Time & Date
Gerlach-Empire, Nevada 71 miles 2.5 7:16 AM PDT
2014-10-23
Mammoth Lakes, California 148 miles 3.0 11:10 PM PDT
2014-10-20
Minimum magnitude displayed is 2.5.

Coastal Water Temperatures

Place Temperature
No Stations Reporting

Nearby Weather Stations